Time;durP1;ratioP1;P1;durP2;ratioP2;P2;SDS_P1;SDS_P2;PMS_P1;PMS_P2;Temp;Humidity;BMP_temperature;BMP_pressure;BME280_temperature;BME280_humidity;BME280_pressure;Samples;Min_cycle;Max_cycle;Signal;HPM_P1;HPM_P2
2023/08/17 00:02:41;;;;;;;10.23;6.80;;;;;;;20.00;70.79;101147.81;1703460;80;22041;-55
2023/08/17 00:08:17;;;;;;;6.78;5.53;;;;;;;19.98;70.87;101148.56;1676529;80;21886;-56
2023/08/17 00:13:52;;;;;;;6.92;5.62;;;;;;;19.95;70.96;101145.36;1710919;80;21774;-55
2023/08/17 00:21:58;;;;;;;10.75;6.22;;;;;;;19.93;71.07;101145.58;1700019;79;21244;-55
2023/08/17 00:27:33;;;;;;;9.95;5.42;;;;;;;19.89;71.10;101140.68;1692538;82;21252;-55
2023/08/17 00:33:10;;;;;;;8.05;5.50;;;;;;;19.85;71.24;101140.81;1700487;79;21290;-55
2023/08/17 00:41:13;;;;;;;9.63;6.37;;;;;;;19.86;71.40;101139.73;1707608;80;22071;-55
2023/08/17 00:46:50;;;;;;;6.85;5.30;;;;;;;19.84;71.41;101139.08;1711224;79;21378;-55
2023/08/17 00:52:26;;;;;;;10.10;5.78;;;;;;;19.82;71.46;101132.91;1690323;82;21232;-56
2023/08/17 01:00:30;;;;;;;9.28;5.55;;;;;;;19.79;71.67;101134.19;1708665;80;21230;-56
2023/08/17 01:06:06;;;;;;;9.08;5.30;;;;;;;19.78;71.73;101135.27;1706492;81;21406;-55
2023/08/17 01:11:52;;;;;;;7.45;5.70;;;;;;;19.76;71.80;101132.37;1681754;80;21837;-55
2023/08/17 01:14:48;;;;;;;9.65;5.35;;;;;;;19.76;71.85;101129.59;1661723;81;21398;-55
2023/08/17 01:20:17;;;;;;;9.60;5.12;;;;;;;19.72;71.93;101126.41;1687064;81;22002;-54
2023/08/17 01:25:53;;;;;;;10.13;5.95;;;;;;;19.70;71.99;101124.91;1708227;80;21264;-54
2023/08/17 01:28:58;;;;;;;8.60;5.40;;;;;;;19.69;72.01;101125.98;1652499;81;21281;-55
2023/08/17 01:34:32;;;;;;;6.92;5.00;;;;;;;19.66;72.11;101131.45;1699997;80;21256;-54
2023/08/17 01:42:35;;;;;;;9.58;5.83;;;;;;;19.66;72.23;101125.03;1707601;80;21243;-55
2023/08/17 01:50:39;;;;;;;8.28;5.30;;;;;;;19.60;72.24;101134.25;1707998;80;22454;-54
2023/08/17 01:53:45;;;;;;;10.23;5.28;;;;;;;19.57;72.22;101121.63;1706048;80;21219;-54
2023/08/17 01:59:17;;;;;;;9.43;5.40;;;;;;;19.59;72.46;101121.41;1709691;80;22010;-55
2023/08/17 02:04:53;;;;;;;8.68;5.15;;;;;;;19.58;72.50;101115.54;1715794;79;21445;-56
2023/08/17 02:10:29;;;;;;;12.15;5.92;;;;;;;19.50;72.40;101121.32;1650261;80;21303;-54
2023/08/17 02:16:04;;;;;;;9.13;5.78;;;;;;;19.42;72.44;101115.98;1668937;82;21898;-54
2023/08/17 02:19:10;;;;;;;7.83;5.17;;;;;;;19.39;72.40;101117.81;1703242;80;21225;-55
2023/08/17 02:24:46;;;;;;;9.30;5.40;;;;;;;19.29;72.60;101121.88;1704335;80;21906;-55
2023/08/17 02:30:21;;;;;;;17.35;5.55;;;;;;;19.24;72.68;101132.74;1704266;80;21817;-55
2023/08/17 02:35:57;;;;;;;7.78;5.60;;;;;;;19.19;72.76;101126.11;1712207;78;21376;-55
2023/08/17 02:39:04;;;;;;;8.20;5.37;;;;;;;19.14;72.75;101130.91;1709999;79;21233;-54
2023/08/17 02:44:37;;;;;;;12.85;5.60;;;;;;;19.03;72.77;101125.14;1697262;81;21840;-54
2023/08/17 02:47:44;;;;;;;6.62;5.42;;;;;;;18.98;72.80;101129.94;1649395;82;21405;-55
2023/08/17 02:55:50;;;;;;;7.37;5.53;;;;;;;18.87;72.97;101138.90;1713310;80;21434;-55
2023/08/17 02:58:57;;;;;;;8.40;4.90;;;;;;;18.87;73.05;101140.80;1700428;82;21200;-55
2023/08/17 03:04:33;;;;;;;8.93;6.00;;;;;;;18.83;73.14;101150.11;1663926;80;21246;-55
2023/08/17 03:10:08;;;;;;;9.48;6.00;;;;;;;18.78;73.15;101145.72;1703855;79;21244;-56
2023/08/17 03:15:45;;;;;;;5.87;4.95;;;;;;;18.71;73.22;101143.45;1712739;80;21895;-57
2023/08/17 03:21:22;;;;;;;7.90;5.20;;;;;;;18.69;73.40;101145.61;1681695;81;21973;-55
2023/08/17 03:26:57;;;;;;;13.72;9.68;;;;;;;18.70;73.48;101151.46;1708991;79;21375;-56
2023/08/17 03:32:33;;;;;;;11.22;6.40;;;;;;;18.73;73.61;101155.72;1712471;80;21216;-55
2023/08/17 03:38:10;;;;;;;9.65;6.53;;;;;;;18.79;73.75;101158.52;1703750;80;21336;-53
2023/08/17 03:43:45;;;;;;;8.98;5.95;;;;;;;18.85;73.88;101156.28;1700104;80;21311;-54
2023/08/17 03:49:21;;;;;;;11.90;6.60;;;;;;;18.92;73.94;101164.09;1703065;81;21578;-54
2023/08/17 03:54:56;;;;;;;14.63;6.05;;;;;;;19.01;74.06;101157.27;1709719;78;21224;-54
2023/08/17 04:00:30;;;;;;;8.78;5.37;;;;;;;19.08;74.15;101162.83;1704114;80;21279;-54
2023/08/17 04:06:12;;;;;;;7.97;5.60;;;;;;;19.19;74.29;101160.81;1695274;79;21369;-55
2023/08/17 04:09:19;;;;;;;8.95;5.37;;;;;;;19.25;74.32;101166.37;1707857;80;21251;-55
2023/08/17 04:12:04;;;;;;;7.70;5.12;;;;;;;19.32;74.35;101162.23;1707399;80;21475;-54
2023/08/17 04:14:33;;;;;;;12.55;5.37;;;;;;;19.38;74.40;101166.10;1707515;80;21262;-54
2023/08/17 04:17:40;;;;;;;7.90;5.08;;;;;;;19.42;74.41;101166.84;1702628;80;21279;-54
2023/08/17 04:20:46;;;;;;;6.35;5.05;;;;;;;19.47;74.46;101168.97;1701365;80;21429;-54
2023/08/17 04:23:53;;;;;;;7.70;5.65;;;;;;;19.53;74.51;101161.16;1701078;80;21346;-54
2023/08/17 04:29:27;;;;;;;10.00;5.15;;;;;;;19.66;74.71;101164.80;1700265;80;21289;-55
2023/08/17 04:35:03;;;;;;;8.33;5.33;;;;;;;19.84;74.86;101173.82;1676587;80;21840;-54
2023/08/17 04:38:10;;;;;;;8.18;5.50;;;;;;;19.91;74.86;101174.67;1668871;81;21259;-56
2023/08/17 04:41:16;;;;;;;10.23;5.15;;;;;;;19.99;74.92;101170.27;1680589;83;21792;-55
2023/08/17 04:44:15;;;;;;;8.50;5.42;;;;;;;20.08;74.96;101172.59;1636224;84;21705;-56
2023/08/17 04:52:20;;;;;;;11.08;5.00;;;;;;;20.32;75.08;101171.91;1715201;80;21267;-55
2023/08/17 04:55:27;;;;;;;14.80;5.50;;;;;;;20.40;75.12;101171.67;1702618;80;21660;-56
2023/08/17 05:03:33;;;;;;;11.45;4.75;;;;;;;20.68;75.21;101173.55;1717445;79;21278;-55
2023/08/17 05:09:07;;;;;;;10.82;5.45;;;;;;;20.85;75.25;101178.60;1705210;80;21749;-54
2023/08/17 05:14:42;;;;;;;10.25;5.12;;;;;;;21.02;75.25;101175.09;1674865;82;21239;-54
2023/08/17 05:17:49;;;;;;;8.40;5.20;;;;;;;21.10;75.26;101179.53;1698701;80;21386;-54
2023/08/17 05:20:47;;;;;;;10.65;5.30;;;;;;;21.20;75.27;101176.55;1702912;80;21335;-56
2023/08/17 05:23:54;;;;;;;10.10;4.95;;;;;;;21.26;75.22;101178.46;1684624;80;21765;-54
2023/08/17 05:29:27;;;;;;;9.63;4.62;;;;;;;21.44;75.26;101191.05;1702515;80;21518;-55
2023/08/17 05:32:33;;;;;;;15.63;4.90;;;;;;;21.51;75.31;101183.50;1707702;79;21255;-54
2023/08/17 05:38:07;;;;;;;12.37;4.95;;;;;;;21.71;75.34;101188.34;1708202;80;21291;-54
2023/08/17 05:41:17;;;;;;;8.88;4.70;;;;;;;21.79;75.32;101184.43;1694955;80;21192;-53
2023/08/17 05:49:22;;;;;;;8.35;4.95;;;;;;;22.04;75.26;101195.86;1705685;79;21355;-54
2023/08/17 05:54:59;;;;;;;13.78;6.10;;;;;;;22.19;75.19;101196.88;1714390;80;21765;-54
2023/08/17 06:00:35;;;;;;;7.95;5.05;;;;;;;22.36;75.22;101197.13;1709155;80;21792;-54
2023/08/17 06:03:40;;;;;;;9.23;5.80;;;;;;;22.44;75.26;101194.03;1699240;80;21760;-58
2023/08/17 06:09:16;;;;;;;7.37;5.75;;;;;;;22.62;75.21;101185.66;1711706;81;21610;-54
2023/08/17 06:14:53;;;;;;;7.78;5.08;;;;;;;22.80;75.21;101185.06;1706959;79;21593;-54
2023/08/17 06:20:27;;;;;;;9.58;5.30;;;;;;;22.99;75.20;101195.67;1704131;80;21197;-54
2023/08/17 06:26:07;;;;;;;8.93;5.30;;;;;;;23.15;75.13;101195.00;1692056;80;21368;-55
2023/08/17 06:34:12;;;;;;;11.65;4.90;;;;;;;23.40;75.00;101204.09;1700564;80;21239;-54
2023/08/17 06:39:48;;;;;;;11.08;4.95;;;;;;;23.56;74.92;101193.04;1714461;80;21230;-54
2023/08/17 06:42:54;;;;;;;8.80;5.25;;;;;;;23.64;74.89;101189.89;1710438;81;21275;-56
2023/08/17 06:46:01;;;;;;;7.85;5.37;;;;;;;23.74;74.83;101192.09;1701237;79;21290;-56
2023/08/17 06:51:36;;;;;;;8.60;5.00;;;;;;;23.94;74.68;101200.99;1668780;80;21246;-54
2023/08/17 06:59:41;;;;;;;8.85;4.62;;;;;;;24.18;74.45;101202.69;1689887;79;21781;-55
2023/08/17 07:07:47;;;;;;;7.53;4.10;;;;;;;24.43;74.18;101187.89;1663594;81;21324;-54
2023/08/17 07:10:52;;;;;;;7.20;4.03;;;;;;;24.50;74.06;101184.38;1656913;81;21816;-55
2023/08/17 07:16:29;;;;;;;7.62;3.95;;;;;;;24.67;73.78;101188.12;1700277;80;21852;-54
2023/08/17 07:22:07;;;;;;;7.33;3.60;;;;;;;24.79;73.44;101181.95;1699251;80;21292;-56
2023/08/17 07:27:42;;;;;;;7.20;2.80;;;;;;;24.88;73.08;101172.05;1694486;78;21239;-55
2023/08/17 07:33:16;;;;;;;10.43;3.30;;;;;;;24.99;72.87;101163.27;1689089;80;21304;-55
2023/08/17 07:38:50;;;;;;;6.17;3.00;;;;;;;25.14;72.55;101166.38;1699091;79;21215;-55
2023/08/17 07:41:56;;;;;;;4.92;2.83;;;;;;;25.20;72.38;101166.76;1694360;80;21820;-55
2023/08/17 07:47:32;;;;;;;5.58;2.50;;;;;;;25.35;72.02;101164.82;1693117;80;21231;-55
2023/08/17 07:53:07;;;;;;;9.33;2.75;;;;;;;25.47;71.62;101166.98;1651286;82;21286;-55
2023/08/17 07:58:41;;;;;;;8.43;4.80;;;;;;;25.60;71.20;101157.69;1674914;80;22176;-55
2023/08/17 08:04:16;;;;;;;5.83;2.58;;;;;;;25.76;70.79;101161.59;1688877;81;21781;-55
2023/08/17 08:09:51;;;;;;;6.08;2.77;;;;;;;25.92;70.32;101156.52;1702472;80;21891;-54
2023/08/17 08:15:25;;;;;;;12.05;2.92;;;;;;;26.04;69.82;101148.31;1672691;82;22859;-54
2023/08/17 08:18:31;;;;;;;8.20;2.52;;;;;;;26.12;69.69;101145.60;1654671;81;21236;-55
2023/08/17 08:24:05;;;;;;;5.58;2.10;;;;;;;26.35;69.05;101151.00;1680954;79;21357;-56
2023/08/17 08:29:41;;;;;;;4.37;1.92;;;;;;;26.46;68.44;101154.23;1656895;81;21307;-56
2023/08/17 08:32:47;;;;;;;9.85;2.83;;;;;;;26.47;68.11;101148.89;1701692;80;21321;-55
2023/08/17 08:38:22;;;;;;;4.58;2.05;;;;;;;26.53;67.58;101149.24;1682169;80;21252;-54
2023/08/17 08:43:57;;;;;;;8.28;2.08;;;;;;;26.50;66.97;101156.80;1718313;80;21277;-55
2023/08/17 08:49:32;;;;;;;6.83;1.90;;;;;;;26.49;66.51;101149.48;1697350;79;21799;-57
2023/08/17 08:55:20;;;;;;;5.33;1.95;;;;;;;26.59;66.17;101147.36;1705400;80;21260;-56
2023/08/17 08:58:24;;;;;;;7.15;2.77;;;;;;;26.67;65.94;101147.76;1699711;80;21855;-56
2023/08/17 09:01:31;;;;;;;6.53;2.20;;;;;;;26.67;65.54;101152.55;1692577;81;21282;-55
2023/08/17 09:07:07;;;;;;;5.33;2.30;;;;;;;26.60;64.98;101147.09;1695260;77;21726;-56
2023/08/17 09:12:43;;;;;;;8.58;2.20;;;;;;;26.64;64.54;101148.28;1693626;82;21271;-55
2023/08/17 09:15:51;;;;;;;4.40;2.50;;;;;;;26.70;64.42;101139.38;1651398;80;21289;-55
2023/08/17 09:18:58;;;;;;;3.52;1.98;;;;;;;26.79;64.37;101142.86;1666770;81;21748;-55
2023/08/17 09:24:43;;;;;;;5.50;1.90;;;;;;;27.04;63.83;101138.91;1717658;78;21541;-55
2023/08/17 09:27:48;;;;;;;6.55;2.50;;;;;;;27.13;63.54;101137.89;1706094;78;21789;-56
2023/08/17 09:31:07;;;;;;;3.52;2.12;;;;;;;27.23;63.30;101140.23;1728421;79;21335;-55
2023/08/17 09:39:13;;;;;;;4.08;2.08;;;;;;;27.22;62.34;101134.87;1728476;78;22154;-55
2023/08/17 09:44:48;;;;;;;8.78;2.27;;;;;;;27.37;62.00;101137.30;1719669;79;21436;-57
2023/08/17 09:50:25;;;;;;;8.80;3.20;;;;;;;27.35;61.39;101135.30;1679551;82;21400;-55
2023/08/17 09:56:03;;;;;;;4.00;2.00;;;;;;;27.33;61.03;101138.95;1676700;83;21241;-54
2023/08/17 10:04:11;;;;;;;6.80;1.98;;;;;;;27.69;60.57;101137.27;1668717;80;21789;-54
2023/08/17 10:09:50;;;;;;;3.35;2.10;;;;;;;27.89;60.01;101146.46;1687067;81;21232;-54
2023/08/17 10:15:55;;;;;;;2.30;1.72;;;;;;;27.87;59.37;101132.63;1672607;80;22122;-55
2023/08/17 10:24:03;;;;;;;7.12;2.22;;;;;;;28.06;59.03;101128.83;1702670;80;21250;-54
2023/08/17 10:29:39;;;;;;;4.70;2.30;;;;;;;28.25;58.67;101132.88;1704886;80;21200;-55
2023/08/17 10:35:14;;;;;;;15.93;2.70;;;;;;;28.33;57.32;101132.36;1672332;80;21245;-57
2023/08/17 10:43:21;;;;;;;5.20;2.40;;;;;;;28.16;57.12;101132.56;1668046;81;21330;-56
2023/08/17 10:48:58;;;;;;;3.37;1.92;;;;;;;28.11;57.02;101128.86;1680340;80;21279;-56
2023/08/17 10:54:36;;;;;;;5.53;2.10;;;;;;;28.44;56.99;101124.23;1669856;81;21264;-58
2023/08/17 10:57:44;;;;;;;5.75;1.90;;;;;;;28.81;57.17;101120.73;1693250;80;21244;-58
2023/08/17 11:00:50;;;;;;;7.03;2.47;;;;;;;29.01;56.77;101122.19;1685030;80;21208;-56
2023/08/17 11:03:58;;;;;;;11.03;2.72;;;;;;;29.01;56.77;101122.19;1688434;81;21792;-57
2023/08/17 11:12:09;;;;;;;4.35;1.87;;;;;;;29.22;55.37;101116.89;1681161;81;21219;-58
2023/08/17 11:17:45;;;;;;;5.50;1.90;;;;;;;29.28;55.16;101115.77;1709175;79;21269;-57
2023/08/17 11:20:50;;;;;;;7.37;1.90;;;;;;;29.34;55.05;101107.58;1670281;80;21612;-57
2023/08/17 11:23:57;;;;;;;5.62;2.30;;;;;;;29.49;54.91;101111.83;1654335;80;21820;-58
2023/08/17 11:29:32;;;;;;;3.90;1.80;;;;;;;29.81;54.53;101108.72;1693274;81;21304;-55
2023/08/17 11:35:09;;;;;;;5.67;3.00;;;;;;;29.99;54.08;101103.30;1702169;79;21257;-56
2023/08/17 11:38:15;;;;;;;3.70;2.45;;;;;;;30.08;53.96;101090.27;1701014;79;21266;-53
2023/08/17 11:43:50;;;;;;;8.10;2.15;;;;;;;30.19;53.36;101097.58;1697788;80;21291;-54
2023/08/17 11:49:26;;;;;;;7.42;6.60;;;;;;;30.14;52.75;101091.97;1705785;78;21232;-56
2023/08/17 11:55:05;;;;;;;4.12;1.82;;;;;;;30.10;52.32;101092.25;1691055;81;21587;-53
2023/08/17 12:00:50;;;;;;;3.33;1.65;;;;;;;29.97;51.69;101085.78;1683001;81;21808;-54
2023/08/17 12:03:56;;;;;;;4.72;1.90;;;;;;;29.98;51.61;101085.23;1702510;80;21772;-54
2023/08/17 12:07:03;;;;;;;4.50;2.17;;;;;;;29.96;51.42;101083.25;1704847;80;21228;-53
2023/08/17 12:10:11;;;;;;;3.27;1.90;;;;;;;29.97;51.30;101085.78;1704844;80;21225;-55
2023/08/17 12:13:21;;;;;;;7.22;1.92;;;;;;;30.01;51.08;101079.86;1694794;80;21237;-54
2023/08/17 12:16:27;;;;;;;6.47;2.10;;;;;;;30.10;50.96;101085.74;1675908;83;21244;-54
2023/08/17 12:22:02;;;;;;;7.33;1.87;;;;;;;29.96;50.17;101085.52;1702070;80;21221;-54
2023/08/17 12:25:08;;;;;;;8.05;2.20;;;;;;;29.84;49.94;101083.59;1682594;81;21231;-54
2023/08/17 12:28:16;;;;;;;4.33;2.08;;;;;;;29.74;49.76;101086.97;1696495;80;21741;-54
2023/08/17 12:31:01;;;;;;;6.15;2.30;;;;;;;29.69;49.69;101079.36;1681972;81;21190;-53
2023/08/17 12:33:30;;;;;;;7.05;2.42;;;;;;;29.68;49.67;101073.45;1686062;80;21745;-52
2023/08/17 12:36:37;;;;;;;5.53;2.30;;;;;;;29.73;49.63;101083.30;1680429;79;21252;-53
2023/08/17 12:39:06;;;;;;;10.43;2.60;;;;;;;29.72;49.50;101080.20;1733520;79;21729;-54
2023/08/17 12:42:13;;;;;;;5.85;2.52;;;;;;;29.70;49.35;101078.22;1697255;79;21236;-57
2023/08/17 12:45:20;;;;;;;7.85;2.55;;;;;;;29.51;48.98;101071.44;1695497;80;21284;-55
2023/08/17 12:48:25;;;;;;;5.33;2.20;;;;;;;29.31;48.82;101074.29;1705020;80;21264;-54
2023/08/17 12:54:03;;;;;;;3.50;2.30;;;;;;;29.49;49.08;101073.73;1701842;80;21298;-56
2023/08/17 12:59:41;;;;;;;4.87;2.25;;;;;;;29.16;48.41;101068.66;1682175;81;21224;-53
2023/08/17 13:02:51;;;;;;;3.90;2.30;;;;;;;28.99;48.43;101070.85;1698702;79;21574;-54
2023/08/17 13:08:24;;;;;;;5.30;2.27;;;;;;;28.79;48.40;101064.64;1708996;79;21267;-54
2023/08/17 13:14:01;;;;;;;14.35;3.17;;;;;;;28.68;48.65;101054.47;1691588;80;21196;-53
2023/08/17 13:22:10;;;;;;;7.83;2.45;;;;;;;28.81;48.51;101057.31;1700377;79;21288;-52
2023/08/17 13:25:15;;;;;;;6.92;2.10;;;;;;;28.82;48.30;101053.36;1705120;80;21255;-55
2023/08/17 13:28:21;;;;;;;9.65;7.53;;;;;;;28.87;47.82;101057.05;1682823;79;21738;-54
2023/08/17 13:33:56;;;;;;;5.08;2.42;;;;;;;28.92;48.07;101048.56;1650466;81;21239;-54
2023/08/17 13:39:34;;;;;;;8.45;2.47;;;;;;;29.06;47.75;101044.64;1666527;82;21323;-53
2023/08/17 13:42:46;;;;;;;4.97;2.85;;;;;;;29.13;47.84;101043.81;1702360;80;21269;-53
2023/08/17 13:45:37;;;;;;;7.25;3.00;;;;;;;29.00;47.52;101050.00;1702153;80;21226;-55
2023/08/17 13:48:44;;;;;;;6.65;3.00;;;;;;;28.82;47.36;101053.36;1698325;79;22125;-55
2023/08/17 13:56:48;;;;;;;4.47;2.50;;;;;;;28.72;47.49;101044.88;1708906;80;21256;-54
2023/08/17 14:02:22;;;;;;;6.78;2.10;;;;;;;28.82;47.45;101045.75;1711686;81;21288;-55
2023/08/17 14:07:58;;;;;;;8.10;3.47;;;;;;;28.99;47.13;101042.09;1708333;80;21748;-55
2023/08/17 14:13:36;;;;;;;7.72;2.98;;;;;;;28.90;47.08;101035.89;1664258;82;21812;-55
2023/08/17 14:19:11;;;;;;;4.40;2.52;;;;;;;28.90;47.08;101040.11;1701691;81;21267;-55
2023/08/17 14:24:46;;;;;;;7.35;3.92;;;;;;;28.83;46.90;101036.71;1705872;81;21247;-55
2023/08/17 14:32:51;;;;;;;6.50;2.20;;;;;;;28.80;46.60;101037.27;1688251;80;21275;-54
2023/08/17 14:35:58;;;;;;;6.10;2.10;;;;;;;28.77;47.10;101035.02;1691538;80;21264;-55
2023/08/17 14:44:00;;;;;;;7.80;2.70;;;;;;;28.78;46.90;101028.27;1705753;81;21276;-55
2023/08/17 14:47:07;;;;;;;5.17;2.42;;;;;;;28.78;46.87;101033.33;1692125;79;21228;-55
2023/08/17 14:50:06;;;;;;;8.25;2.98;;;;;;;28.72;46.99;101025.14;1662413;81;21236;-55
2023/08/17 14:53:11;;;;;;;6.08;2.37;;;;;;;28.72;46.99;101025.14;1647008;83;21815;-55
2023/08/17 14:58:45;;;;;;;5.78;2.22;;;;;;;28.60;46.42;101022.61;1710392;80;21215;-55
2023/08/17 15:01:55;;;;;;;3.72;2.17;;;;;;;28.60;46.42;101022.61;1660955;82;21266;-54
2023/08/17 15:05:00;;;;;;;8.95;2.40;;;;;;;28.57;46.74;101022.31;1685176;81;21276;-55
2023/08/17 15:08:06;;;;;;;9.20;2.50;;;;;;;28.54;46.69;101018.64;1689880;81;21232;-57
2023/08/17 15:11:13;;;;;;;5.72;2.20;;;;;;;28.49;46.68;101022.86;1708582;78;21833;-56
2023/08/17 15:14:19;;;;;;;4.53;2.30;;;;;;;28.43;46.73;101023.94;1689915;82;21245;-55
2023/08/17 15:17:26;;;;;;;6.15;2.47;;;;;;;28.42;46.83;101020.27;1710988;79;21221;-56
2023/08/17 15:20:31;;;;;;;7.87;2.40;;;;;;;28.44;46.87;101024.21;1722395;79;21817;-55
2023/08/17 15:26:06;;;;;;;9.43;2.92;;;;;;;28.34;46.79;101018.54;1718069;80;21403;-55
2023/08/17 15:31:41;;;;;;;5.75;2.70;;;;;;;28.36;46.63;101016.30;1698008;81;21232;-55
2023/08/17 15:34:48;;;;;;;5.87;2.70;;;;;;;28.36;46.63;101016.30;1696923;80;21241;-55
2023/08/17 15:40:24;;;;;;;6.85;2.52;;;;;;;28.66;46.61;101016.40;1687828;81;21877;-55
2023/08/17 15:45:59;;;;;;;4.55;2.83;;;;;;;28.61;46.54;101022.02;1691123;80;21277;-55
2023/08/17 15:49:07;;;;;;;4.50;2.30;;;;;;;28.52;46.71;101025.11;1697239;79;21246;-54
2023/08/17 15:52:13;;;;;;;7.47;2.33;;;;;;;28.45;46.80;101023.08;1706450;81;21228;-57
2023/08/17 15:55:19;;;;;;;3.92;2.17;;;;;;;28.46;46.70;101030.42;1685050;80;21229;-54
2023/08/17 15:58:25;;;;;;;5.80;2.40;;;;;;;28.32;46.71;101036.30;1672504;83;21761;-55
2023/08/17 16:01:32;;;;;;;4.05;2.42;;;;;;;28.17;46.77;101027.78;1675236;83;21726;-55
2023/08/17 16:04:39;;;;;;;8.78;3.47;;;;;;;28.04;46.85;101029.70;1653953;81;21257;-54
2023/08/17 16:07:44;;;;;;;8.13;2.87;;;;;;;27.92;47.00;101034.17;1673141;83;21265;-54
2023/08/17 16:13:19;;;;;;;5.25;2.75;;;;;;;27.71;47.15;101040.77;1703731;79;21788;-55
2023/08/17 16:18:54;;;;;;;6.85;2.47;;;;;;;27.52;47.42;101044.59;1640116;82;21239;-55
2023/08/17 16:24:30;;;;;;;5.17;2.52;;;;;;;27.31;47.62;101035.72;1651629;83;21276;-55
2023/08/17 16:30:05;;;;;;;8.23;3.37;;;;;;;27.13;47.93;101036.67;1674080;81;21283;-55
2023/08/17 16:35:43;;;;;;;8.43;3.42;;;;;;;26.90;48.29;101039.82;1658430;81;21244;-56
2023/08/17 16:41:19;;;;;;;10.28;3.83;;;;;;;26.65;48.61;101044.66;1709035;80;21284;-55
2023/08/17 16:46:56;;;;;;;6.08;2.75;;;;;;;26.39;48.98;101051.05;1698241;82;21263;-54
2023/08/17 16:52:31;;;;;;;6.97;2.95;;;;;;;26.14;49.45;101051.62;1705917;80;21247;-54
2023/08/17 16:58:06;;;;;;;8.40;2.92;;;;;;;25.93;49.91;101049.62;1712723;79;21304;-55
2023/08/17 17:03:41;;;;;;;9.03;3.40;;;;;;;25.71;50.29;101058.56;1703829;80;21262;-54
2023/08/17 17:09:18;;;;;;;7.70;3.20;;;;;;;25.50;50.68;101073.95;1698333;80;21258;-55
2023/08/17 17:14:54;;;;;;;8.03;3.15;;;;;;;25.30;51.06;101072.18;1669061;82;21606;-54
2023/08/17 17:20:28;;;;;;;8.53;3.25;;;;;;;25.08;51.42;101072.94;1708426;81;21236;-54
2023/08/17 17:28:34;;;;;;;8.90;3.60;;;;;;;24.82;52.06;101075.00;1696171;80;21357;-54
2023/08/17 17:34:09;;;;;;;7.45;3.75;;;;;;;24.66;52.44;101091.22;1677986;79;21817;-53
2023/08/17 17:39:45;;;;;;;6.60;3.05;;;;;;;24.47;52.79;101089.69;1694653;81;21223;-54
2023/08/17 17:45:24;;;;;;;4.75;3.30;;;;;;;24.28;53.18;101098.52;1698190;80;21784;-55
2023/08/17 17:53:30;;;;;;;5.95;3.60;;;;;;;24.06;53.75;101094.67;1727051;80;21733;-55
2023/08/17 18:01:35;;;;;;;8.58;3.62;;;;;;;23.83;54.36;101103.09;1696802;78;21287;-55
2023/08/17 18:04:42;;;;;;;6.60;3.70;;;;;;;23.75;54.54;101098.73;1700138;80;21307;-55
2023/08/17 18:10:18;;;;;;;6.78;3.80;;;;;;;23.56;54.96;101109.73;1699907;80;21240;-54
2023/08/17 18:15:54;;;;;;;8.05;3.95;;;;;;;23.45;55.38;101114.20;1706643;80;21729;-54
2023/08/17 18:21:31;;;;;;;8.45;3.90;;;;;;;23.33;55.79;101102.72;1701317;80;21760;-54
2023/08/17 18:29:36;;;;;;;6.37;3.95;;;;;;;23.18;56.32;101110.70;1690346;80;21559;-55
2023/08/17 18:35:11;;;;;;;9.30;4.53;;;;;;;23.09;56.68;101112.13;1704935;80;21266;-55
2023/08/17 18:40:51;;;;;;;9.00;4.05;;;;;;;22.96;56.99;101106.77;1697336;80;21729;-55
2023/08/17 18:48:56;;;;;;;9.05;3.95;;;;;;;22.78;57.48;101111.87;1725801;78;21358;-54
2023/08/17 18:52:03;;;;;;;8.60;4.62;;;;;;;22.73;57.62;101108.08;1705325;80;21255;-55
2023/08/17 18:57:49;;;;;;;11.53;4.30;;;;;;;22.59;57.99;101105.18;1737299;78;21510;-55
2023/08/17 19:00:56;;;;;;;9.25;4.62;;;;;;;22.53;58.18;101104.20;1727022;80;21361;-55
2023/08/17 19:04:02;;;;;;;9.88;5.40;;;;;;;22.49;58.34;101114.62;1734025;79;22025;-55
2023/08/17 19:07:12;;;;;;;7.85;4.65;;;;;;;22.42;58.54;101111.09;1729138;80;21235;-55
2023/08/17 19:12:48;;;;;;;11.70;5.85;;;;;;;22.32;58.88;101119.15;1706052;79;21382;-55
2023/08/17 19:18:24;;;;;;;12.70;5.25;;;;;;;22.22;59.18;101121.09;1735206;78;21371;-55
2023/08/17 19:24:00;;;;;;;12.50;5.15;;;;;;;22.15;59.49;101119.78;1740300;80;21286;-55
2023/08/17 19:29:38;;;;;;;10.80;5.87;;;;;;;22.08;59.78;101119.03;1659880;82;21618;-54
2023/08/17 19:35:15;;;;;;;10.13;4.90;;;;;;;21.97;59.99;101117.55;1676459;81;21357;-55
2023/08/17 19:40:50;;;;;;;12.55;5.00;;;;;;;21.88;60.26;101123.96;1661704;82;21376;-56
2023/08/17 19:43:56;;;;;;;12.63;5.42;;;;;;;21.86;60.37;101121.11;1728998;79;21219;-55
2023/08/17 19:52:00;;;;;;;8.48;5.33;;;;;;;21.72;60.75;101126.48;1673273;81;21843;-56
2023/08/17 19:57:35;;;;;;;9.53;5.50;;;;;;;21.62;60.97;101131.19;1666354;82;21306;-56
2023/08/17 20:03:11;;;;;;;9.98;5.95;;;;;;;21.53;61.22;101135.33;1679605;81;21231;-55
2023/08/17 20:08:46;;;;;;;9.80;5.35;;;;;;;21.43;61.47;101126.66;1669744;81;21589;-55
2023/08/17 20:14:21;;;;;;;13.05;5.33;;;;;;;21.36;61.76;101131.42;1670101;81;22102;-54
2023/08/17 20:19:56;;;;;;;9.78;5.78;;;;;;;21.27;62.04;101128.63;1676225;81;21227;-54
2023/08/17 20:25:32;;;;;;;7.12;5.05;;;;;;;21.19;62.31;101123.86;1680911;81;21240;-55
2023/08/17 20:28:38;;;;;;;9.83;5.55;;;;;;;21.15;62.45;101117.92;1679228;81;21263;-55
2023/08/17 20:34:12;;;;;;;10.93;5.15;;;;;;;21.06;62.65;101126.22;1670962;83;21453;-55
2023/08/17 20:42:17;;;;;;;8.20;4.90;;;;;;;20.98;63.09;101130.67;1676569;82;21279;-55
2023/08/17 20:45:22;;;;;;;9.15;4.78;;;;;;;20.95;63.19;101124.13;1673817;82;21232;-55
2023/08/17 20:53:26;;;;;;;8.53;4.83;;;;;;;20.85;63.46;101134.06;1682986;81;21216;-55
2023/08/17 20:59:00;;;;;;;11.53;5.47;;;;;;;20.78;63.76;101116.88;1674949;81;21236;-55
2023/08/17 21:04:36;;;;;;;11.40;5.22;;;;;;;20.72;64.00;101129.44;1670241;81;21886;-56
2023/08/17 21:10:13;;;;;;;9.23;5.20;;;;;;;20.68;64.30;101129.03;1673433;81;21274;-55
2023/08/17 21:13:11;;;;;;;9.10;4.42;;;;;;;20.66;64.35;101131.17;1641859;82;21371;-54
2023/08/17 21:18:48;;;;;;;7.58;4.50;;;;;;;20.60;64.53;101128.42;1675482;81;21272;-54
2023/08/17 21:24:24;;;;;;;9.78;4.67;;;;;;;20.58;64.89;101133.38;1678199;82;21398;-54
2023/08/17 21:29:59;;;;;;;8.73;5.30;;;;;;;20.53;65.07;101131.80;1675386;80;21800;-56
2023/08/17 21:35:35;;;;;;;7.95;4.97;;;;;;;20.49;65.23;101131.91;1685065;80;21233;-55
2023/08/17 21:41:12;;;;;;;9.35;4.45;;;;;;;20.42;65.36;101129.72;1674468;82;21816;-55
2023/08/17 21:49:17;;;;;;;9.23;5.20;;;;;;;20.35;65.65;101131.67;1625655;82;21326;-56
2023/08/17 21:54:57;;;;;;;10.68;5.17;;;;;;;20.29;65.81;101135.34;1677245;83;21223;-54
2023/08/17 21:58:07;;;;;;;6.87;4.87;;;;;;;20.27;65.88;101126.36;1675167;80;21241;-55
2023/08/17 22:01:12;;;;;;;7.78;5.03;;;;;;;20.22;65.99;101127.02;1677309;81;21718;-55
2023/08/17 22:04:19;;;;;;;9.88;4.92;;;;;;;20.20;66.13;101129.16;1680805;81;21243;-55
2023/08/17 22:09:57;;;;;;;9.75;5.60;;;;;;;20.15;66.35;101126.73;1679836;82;21453;-55
2023/08/17 22:13:04;;;;;;;8.25;5.37;;;;;;;20.13;66.45;101124.67;1671774;80;21251;-55
2023/08/17 22:16:09;;;;;;;10.65;5.35;;;;;;;20.10;66.52;101126.51;1675725;81;21927;-55
2023/08/17 22:21:44;;;;;;;8.50;5.22;;;;;;;20.05;66.76;101122.13;1682217;82;21291;-54
2023/08/17 22:27:19;;;;;;;7.55;5.40;;;;;;;20.01;66.92;101126.45;1682055;81;21414;-54
2023/08/17 22:32:55;;;;;;;8.15;5.33;;;;;;;19.96;67.05;101133.19;1664075;83;21385;-55
2023/08/17 22:40:59;;;;;;;9.13;6.33;;;;;;;19.91;67.33;101128.81;1670241;82;21425;-54
2023/08/17 22:46:34;;;;;;;8.73;5.33;;;;;;;19.88;67.46;101126.48;1680438;82;21255;-55
2023/08/17 22:52:10;;;;;;;10.20;5.62;;;;;;;19.84;67.64;101136.30;1676525;82;21449;-55
2023/08/17 22:55:16;;;;;;;9.73;5.92;;;;;;;19.81;67.64;101134.83;1645784;83;21726;-54
2023/08/17 22:58:12;;;;;;;8.80;5.42;;;;;;;19.76;67.64;101134.63;1664748;80;21752;-54
2023/08/17 23:03:48;;;;;;;8.20;5.80;;;;;;;19.66;67.74;101136.16;1656395;81;21237;-56
2023/08/17 23:09:23;;;;;;;9.05;6.20;;;;;;;19.59;67.93;101134.77;1661720;83;21307;-55
2023/08/17 23:17:30;;;;;;;11.30;5.90;;;;;;;19.58;68.41;101133.59;1672622;81;21282;-54